createdAt,value
2022-09-06T00:01:25.042Z,17.74
2022-09-06T00:04:28.125Z,17.12
2022-09-06T00:07:31.214Z,16.61
2022-09-06T00:10:34.329Z,16.23
2022-09-06T00:13:38.105Z,15.90
2022-09-06T00:16:41.314Z,15.57
2022-09-06T00:19:44.405Z,15.27
2022-09-06T00:22:47.474Z,15.06
2022-09-06T00:25:50.418Z,14.97
2022-09-06T00:28:53.445Z,15.04
2022-09-06T00:31:56.496Z,15.34
2022-09-06T00:34:59.526Z,15.63
2022-09-06T00:38:03.490Z,16.27
2022-09-06T00:41:08.472Z,16.85
2022-09-06T00:44:11.587Z,17.19
2022-09-06T00:47:14.650Z,17.60
2022-09-06T00:50:19.922Z,18.11
2022-09-06T00:53:23.231Z,18.10
2022-09-06T00:56:27.855Z,17.87
2022-09-06T00:59:34.162Z,17.63
2022-09-06T01:02:37.990Z,17.36
2022-09-06T01:05:46.570Z,17.37
2022-09-06T01:09:08.220Z,17.44
2022-09-06T01:12:30.578Z,17.81
2022-09-06T01:15:51.481Z,17.93
2022-09-06T01:19:20.394Z,18.03
2022-09-06T01:22:35.438Z,17.99
2022-09-06T01:25:48.433Z,18.05
2022-09-06T01:28:53.634Z,17.89
2022-09-06T01:32:17.858Z,17.93
2022-09-06T01:35:47.627Z,18.14
2022-09-06T01:38:50.904Z,18.25
2022-09-06T01:41:55.313Z,18.30
2022-09-06T01:45:19.980Z,18.25
2022-09-06T01:48:35.473Z,18.27
2022-09-06T01:51:56.998Z,18.43
2022-09-06T01:55:15.447Z,18.46
2022-09-06T01:58:21.347Z,18.56
2022-09-06T02:01:46.810Z,18.75
2022-09-06T02:05:05.439Z,18.84
2022-09-06T02:08:24.094Z,19.03
2022-09-06T02:11:30.124Z,19.01
2022-09-06T02:14:40.399Z,19.05
2022-09-06T02:17:51.766Z,19.02
2022-09-06T02:20:57.063Z,19.01
2022-09-06T02:24:09.332Z,19.15
2022-09-06T02:27:13.502Z,19.29
2022-09-06T02:30:16.758Z,19.27
2022-09-06T02:33:26.996Z,19.20
2022-09-06T02:36:31.868Z,18.87
2022-09-06T02:39:35.448Z,18.63
2022-09-06T02:42:38.994Z,18.41
2022-09-06T02:45:42.579Z,18.40
2022-09-06T02:48:45.780Z,18.52
2022-09-06T02:51:48.891Z,18.77
2022-09-06T02:54:52.887Z,18.89
2022-09-06T02:57:56.160Z,18.90
2022-09-06T03:00:59.443Z,18.89
2022-09-06T03:04:08.489Z,19.00
2022-09-06T03:07:11.740Z,19.10
2022-09-06T03:10:15.202Z,19.17
2022-09-06T03:13:21.666Z,19.24
2022-09-06T03:16:24.797Z,19.28
2022-09-06T03:19:27.933Z,19.36
2022-09-06T03:22:31.706Z,19.32
2022-09-06T03:25:34.896Z,19.28
2022-09-06T03:28:37.938Z,19.34
2022-09-06T03:31:41.036Z,19.36
2022-09-06T03:34:44.093Z,19.43
2022-09-06T03:37:47.029Z,19.46
2022-09-06T03:40:50.557Z,19.54
2022-09-06T03:43:53.604Z,19.56
2022-09-06T03:46:56.885Z,19.63
2022-09-06T03:49:59.931Z,19.69
2022-09-06T03:53:02.941Z,19.72
2022-09-06T03:56:06.423Z,19.77
2022-09-06T03:59:09.680Z,19.80
2022-09-06T04:02:12.877Z,19.86
2022-09-06T04:05:18.756Z,19.81
2022-09-06T04:08:24.456Z,19.81
2022-09-06T04:11:27.601Z,19.71
2022-09-06T04:14:31.176Z,19.62
2022-09-06T04:17:34.269Z,19.54
2022-09-06T04:20:37.303Z,19.70
2022-09-06T04:23:40.456Z,19.94
2022-09-06T04:26:43.539Z,20.06
2022-09-06T04:29:46.589Z,20.14
2022-09-06T04:32:49.650Z,20.21
2022-09-06T04:35:59.701Z,20.33
2022-09-06T04:39:02.931Z,20.39
2022-09-06T04:42:06.239Z,20.36
2022-09-06T04:45:09.773Z,20.35
2022-09-06T04:48:12.841Z,20.30
2022-09-06T04:51:16.135Z,20.39
2022-09-06T04:54:19.155Z,20.57
2022-09-06T04:57:22.247Z,20.70
2022-09-06T05:00:25.263Z,20.88
2022-09-06T05:03:28.266Z,21.10
2022-09-06T05:06:31.372Z,21.26
2022-09-06T05:09:35.261Z,21.44
2022-09-06T05:12:42.187Z,21.51
2022-09-06T05:15:47.272Z,21.57
2022-09-06T05:18:50.273Z,21.65
2022-09-06T05:21:53.382Z,21.71
2022-09-06T05:24:56.412Z,21.71
2022-09-06T05:27:59.486Z,21.76
2022-09-06T05:31:09.640Z,21.90
2022-09-06T05:34:14.047Z,22.02
2022-09-06T05:37:17.075Z,22.25
2022-09-06T05:40:20.131Z,22.51
2022-09-06T05:43:23.279Z,22.61
2022-09-06T05:46:27.205Z,22.56
2022-09-06T05:49:31.516Z,22.40
2022-09-06T05:52:35.735Z,22.14
2022-09-06T05:55:42.732Z,21.90
2022-09-06T05:58:46.106Z,21.92
2022-09-06T06:01:55.914Z,22.02
2022-09-06T06:04:59.155Z,21.92
2022-09-06T06:08:02.301Z,21.99
2022-09-06T06:11:05.499Z,21.96
2022-09-06T06:14:09.253Z,22.00
2022-09-06T06:17:12.240Z,22.03
2022-09-06T06:20:15.620Z,22.01
2022-09-06T06:23:18.641Z,21.94
2022-09-06T06:26:21.897Z,21.91
2022-09-06T06:29:25.942Z,22.05
2022-09-06T06:32:29.111Z,22.38
2022-09-06T06:35:32.131Z,22.60
2022-09-06T06:38:39.154Z,22.66
2022-09-06T06:41:42.197Z,22.51
2022-09-06T06:45:02.636Z,22.17
2022-09-06T06:48:05.768Z,21.99
2022-09-06T06:51:12.267Z,22.01
2022-09-06T06:54:15.319Z,21.97
2022-09-06T06:57:18.469Z,22.00
2022-09-06T07:00:24.043Z,22.03
2022-09-06T07:03:29.337Z,22.17
2022-09-06T07:13:34.685Z,22.72
2022-09-06T07:16:37.754Z,22.51
2022-09-06T07:26:31.310Z,21.84
2022-09-06T07:29:34.288Z,21.56
2022-09-06T07:32:37.516Z,21.40
2022-09-06T07:35:40.602Z,21.31
2022-09-06T07:38:43.671Z,21.18
2022-09-06T07:41:46.725Z,21.09
2022-09-06T07:44:49.794Z,21.01
2022-09-06T07:47:59.440Z,20.92
2022-09-06T07:51:12.925Z,20.78
2022-09-06T07:54:31.720Z,20.60
2022-09-06T07:57:34.856Z,20.51
2022-09-06T08:00:38.945Z,20.42
2022-09-06T08:03:42.227Z,20.33
2022-09-06T08:10:13.202Z,20.22
2022-09-06T08:13:17.791Z,20.21
2022-09-06T08:16:21.375Z,20.23
2022-09-06T08:19:24.675Z,20.29
2022-09-06T08:22:27.841Z,20.23
2022-09-06T08:25:31.111Z,20.16
2022-09-06T08:28:34.360Z,20.03
2022-09-06T08:31:40.521Z,19.96
2022-09-06T08:34:43.936Z,19.90
2022-09-06T08:37:49.288Z,20.02
2022-09-06T08:40:55.681Z,20.17
2022-09-06T08:47:30.276Z,20.39
2022-09-06T08:50:38.469Z,20.35
2022-09-06T08:53:49.119Z,20.35
2022-09-06T08:57:17.884Z,20.15
2022-09-06T09:00:21.891Z,19.86
2022-09-06T09:03:33.604Z,19.71
2022-09-06T09:06:39.839Z,19.68
2022-09-06T09:09:43.237Z,19.74
2022-09-06T09:12:48.928Z,19.78
2022-09-06T09:15:52.060Z,19.76
2022-09-06T09:19:02.748Z,19.74
2022-09-06T09:22:06.041Z,19.67
2022-09-06T09:25:13.375Z,19.63
2022-09-06T09:28:24.491Z,19.59
2022-09-06T09:31:42.766Z,19.60
2022-09-06T09:34:46.059Z,19.53
2022-09-06T09:37:52.963Z,19.47
2022-09-06T09:41:05.023Z,19.44
2022-09-06T09:44:18.166Z,19.40
2022-09-06T09:47:32.555Z,19.41
2022-09-06T09:50:36.192Z,19.34
2022-09-06T09:53:52.163Z,19.28
2022-09-06T09:56:57.568Z,19.22
2022-09-06T10:00:07.207Z,19.17
2022-09-06T10:03:15.654Z,19.12
2022-09-06T10:10:00.581Z,19.01
2022-09-06T10:13:36.256Z,18.96
2022-09-06T10:16:45.474Z,18.89
2022-09-06T10:19:49.392Z,18.81
2022-09-06T10:23:11.468Z,18.77
2022-09-06T10:26:29.699Z,18.70
2022-09-06T10:29:56.603Z,18.61
2022-09-06T10:33:27.227Z,18.51
2022-09-06T10:36:36.502Z,18.42
2022-09-06T10:39:48.710Z,18.27
2022-09-06T10:42:54.443Z,18.15
2022-09-06T10:46:09.945Z,18.06
2022-09-06T10:49:18.598Z,17.98
2022-09-06T10:52:38.579Z,17.84
2022-09-06T10:55:47.815Z,17.72
2022-09-06T11:02:48.589Z,17.50
2022-09-06T11:06:00.232Z,17.39
2022-09-06T11:09:30.509Z,17.28
2022-09-06T11:12:46.931Z,17.16
2022-09-06T11:16:09.379Z,17.11
2022-09-06T11:19:24.384Z,17.03
2022-09-06T11:22:54.763Z,16.91
2022-09-06T11:26:21.670Z,16.83
2022-09-06T11:29:28.056Z,16.71
2022-09-06T11:32:49.203Z,16.61
2022-09-06T11:35:52.978Z,16.56
2022-09-06T11:39:01.858Z,16.53
2022-09-06T11:42:08.902Z,16.47
2022-09-06T11:45:21.941Z,16.37
2022-09-06T11:48:24.964Z,16.30
2022-09-06T11:51:39.878Z,16.22
2022-09-06T11:54:47.976Z,16.14
2022-09-06T11:57:56.328Z,16.04
2022-09-06T12:01:21.438Z,15.95
2022-09-06T12:04:24.849Z,15.88
2022-09-06T12:07:33.124Z,15.81
2022-09-06T12:10:50.181Z,15.70
2022-09-06T12:14:06.349Z,15.58
2022-09-06T12:17:10.329Z,15.45
2022-09-06T12:20:55.613Z,15.37
2022-09-06T12:23:59.270Z,15.29
2022-09-06T12:27:20.135Z,15.24
2022-09-06T12:30:38.118Z,15.21
2022-09-06T12:33:41.436Z,15.12
2022-09-06T12:37:01.861Z,15.00
2022-09-06T12:40:07.986Z,14.78
2022-09-06T12:43:14.309Z,14.63
2022-09-06T12:46:17.668Z,14.43
2022-09-06T12:49:23.043Z,14.31
2022-09-06T12:52:26.109Z,14.16
2022-09-06T12:55:38.375Z,14.12
2022-09-06T12:58:41.700Z,14.09
2022-09-06T13:01:51.370Z,14.06
2022-09-06T13:05:01.971Z,14.00
2022-09-06T13:08:05.468Z,13.87
2022-09-06T13:11:14.287Z,13.75
2022-09-06T13:14:25.145Z,13.64
2022-09-06T13:17:31.360Z,13.56
2022-09-06T13:20:34.553Z,13.49
2022-09-06T13:23:42.989Z,13.43
2022-09-06T13:26:46.114Z,13.40
2022-09-06T13:29:57.867Z,13.39
2022-09-06T13:33:01.891Z,13.40
2022-09-06T13:36:16.551Z,13.42
2022-09-06T13:39:34.431Z,13.60
2022-09-06T13:42:38.351Z,13.78
2022-09-06T13:45:41.537Z,13.95
2022-09-06T13:48:45.280Z,14.11
2022-09-06T13:51:48.624Z,14.28
2022-09-06T13:54:51.674Z,14.41
2022-09-06T13:57:54.833Z,14.46
2022-09-06T14:00:59.242Z,14.51
2022-09-06T14:04:03.016Z,14.50
2022-09-06T14:07:06.783Z,14.51
2022-09-06T14:10:12.098Z,14.53
2022-09-06T14:13:17.155Z,14.56
2022-09-06T14:16:20.315Z,14.65
2022-09-06T14:19:24.216Z,14.65
2022-09-06T14:22:27.348Z,14.62
2022-09-06T14:25:31.039Z,14.54
2022-09-06T14:28:36.966Z,14.45
2022-09-06T14:31:41.662Z,14.38
2022-09-06T14:34:44.542Z,14.36
2022-09-06T14:37:47.713Z,14.27
2022-09-06T14:40:50.954Z,14.20
2022-09-06T14:43:56.175Z,14.12
2022-09-06T14:47:00.625Z,14.00
2022-09-06T14:50:04.509Z,13.87
2022-09-06T14:53:24.055Z,13.84
2022-09-06T14:56:30.984Z,13.85
2022-09-06T14:59:34.038Z,13.82
2022-09-06T15:02:37.721Z,13.71
2022-09-06T15:05:40.748Z,13.57
2022-09-06T15:08:44.118Z,13.41
2022-09-06T15:11:51.941Z,13.23
2022-09-06T15:14:54.990Z,13.06
2022-09-06T15:17:59.045Z,12.88
2022-09-06T15:21:16.827Z,12.81
2022-09-06T15:24:20.297Z,12.71
2022-09-06T15:27:23.922Z,12.67
2022-09-06T15:30:26.968Z,12.63
2022-09-06T15:33:34.623Z,12.49
2022-09-06T15:36:38.873Z,12.36
2022-09-06T15:39:42.012Z,12.27
2022-09-06T15:42:45.695Z,12.17
2022-09-06T15:45:50.666Z,12.09
2022-09-06T15:48:54.487Z,12.02
2022-09-06T15:52:00.046Z,11.91
2022-09-06T15:55:21.360Z,11.85
2022-09-06T15:58:28.609Z,11.89
2022-09-06T16:01:34.560Z,11.89
2022-09-06T16:04:37.759Z,11.90
2022-09-06T16:07:43.736Z,11.87
2022-09-06T16:10:47.331Z,11.76
2022-09-06T16:13:50.551Z,11.65
2022-09-06T16:16:55.339Z,11.57
2022-09-06T16:20:02.286Z,11.47
2022-09-06T16:23:05.479Z,11.37
2022-09-06T16:26:10.564Z,11.32
2022-09-06T16:29:16.840Z,11.29
2022-09-06T16:32:20.043Z,11.24
2022-09-06T16:35:23.246Z,11.23
2022-09-06T16:38:26.489Z,11.23
2022-09-06T16:41:43.066Z,11.20
2022-09-06T16:44:48.366Z,11.13
2022-09-06T16:47:51.470Z,11.01
2022-09-06T16:50:55.067Z,10.98
2022-09-06T16:53:58.847Z,10.88
2022-09-06T16:57:02.664Z,10.85
2022-09-06T17:00:06.769Z,10.78
2022-09-06T17:03:10.095Z,10.62
2022-09-06T17:06:13.733Z,10.48
2022-09-06T17:09:20.631Z,10.49
2022-09-06T17:12:24.627Z,10.63
2022-09-06T17:15:47.559Z,10.73
2022-09-06T17:18:54.175Z,10.84
2022-09-06T17:21:57.263Z,10.85
2022-09-06T17:25:00.632Z,10.83
2022-09-06T17:28:03.969Z,10.78
2022-09-06T17:31:08.231Z,10.73
2022-09-06T17:34:11.402Z,10.66
2022-09-06T17:37:14.960Z,10.60
2022-09-06T17:40:18.085Z,10.49
2022-09-06T17:43:21.948Z,10.42
2022-09-06T17:46:28.858Z,10.38
2022-09-06T17:49:32.409Z,10.41
2022-09-06T17:52:37.714Z,10.32
2022-09-06T17:55:42.473Z,10.18
2022-09-06T17:58:55.900Z,10.14
2022-09-06T18:01:58.981Z,10.20
2022-09-06T18:05:02.221Z,10.26
2022-09-06T18:08:06.217Z,10.30
2022-09-06T18:11:25.053Z,10.30
2022-09-06T18:14:29.077Z,10.26
2022-09-06T18:17:33.065Z,10.20
2022-09-06T18:20:36.244Z,10.13
2022-09-06T18:23:39.275Z,10.10
2022-09-06T18:26:43.617Z,10.03
2022-09-06T18:29:46.636Z,10.04
2022-09-06T18:32:49.804Z,10.08
2022-09-06T18:35:53.191Z,10.12
2022-09-06T18:38:56.287Z,10.16
2022-09-06T18:42:02.079Z,10.14
2022-09-06T18:45:05.475Z,10.11
2022-09-06T18:48:09.089Z,10.07
2022-09-06T18:51:15.532Z,9.97
2022-09-06T18:54:19.072Z,9.83
2022-09-06T18:57:22.192Z,9.76
2022-09-06T19:00:26.412Z,9.74
2022-09-06T19:03:29.651Z,9.73
2022-09-06T19:06:34.394Z,9.73
2022-09-06T19:09:37.569Z,9.71
2022-09-06T19:12:40.944Z,9.60
2022-09-06T19:15:45.112Z,9.53
2022-09-06T19:18:48.287Z,9.52
2022-09-06T19:21:51.740Z,9.51
2022-09-06T19:24:55.047Z,9.42
2022-09-06T19:27:58.098Z,9.44
2022-09-06T19:31:07.966Z,9.45
2022-09-06T19:34:12.773Z,9.49
2022-09-06T19:37:17.953Z,9.53
2022-09-06T19:40:21.211Z,9.54
2022-09-06T19:43:24.369Z,9.51
2022-09-06T19:46:28.445Z,9.48
2022-09-06T19:49:31.582Z,9.46
2022-09-06T19:52:34.675Z,9.38
2022-09-06T19:55:37.731Z,9.36
2022-09-06T19:58:41.942Z,9.35
2022-09-06T20:01:46.895Z,9.33
2022-09-06T20:04:50.076Z,9.41
2022-09-06T20:07:53.173Z,9.52
2022-09-06T20:10:58.617Z,9.66
2022-09-06T20:14:01.970Z,9.74
2022-09-06T20:17:31.814Z,9.78
2022-09-06T20:20:28.502Z,9.77
2022-09-06T20:23:34.787Z,9.70
2022-09-06T20:26:38.408Z,9.76
2022-09-06T20:29:41.646Z,9.79
2022-09-06T20:32:44.723Z,9.82
2022-09-06T20:35:59.190Z,9.77
2022-09-06T20:39:02.856Z,9.70
2022-09-06T20:42:06.173Z,9.78
2022-09-06T20:45:09.911Z,9.95
2022-09-06T20:48:13.108Z,10.08
2022-09-06T20:51:19.618Z,10.13
2022-09-06T20:54:22.675Z,10.11
2022-09-06T20:57:25.787Z,10.03
2022-09-06T21:00:28.865Z,9.93
2022-09-06T21:03:31.958Z,9.77
2022-09-06T21:06:37.160Z,9.67
2022-09-06T21:09:40.172Z,9.65
2022-09-06T21:12:43.301Z,9.56
2022-09-06T21:15:48.906Z,9.38
2022-09-06T21:19:03.578Z,9.24
2022-09-06T21:22:06.709Z,9.13
2022-09-06T21:25:10.423Z,9.17
2022-09-06T21:28:13.527Z,9.09
2022-09-06T21:31:19.473Z,9.03
2022-09-06T21:34:23.065Z,8.94
2022-09-06T21:37:26.235Z,8.90
2022-09-06T21:40:29.413Z,8.83
2022-09-06T21:43:33.264Z,8.79
2022-09-06T21:46:38.706Z,8.83
2022-09-06T21:49:41.844Z,8.88
2022-09-06T21:52:44.912Z,9.00
2022-09-06T21:55:47.930Z,9.10
2022-09-06T21:58:58.608Z,9.21
2022-09-06T22:02:01.809Z,9.32
2022-09-06T22:05:07.286Z,9.40
2022-09-06T22:08:10.348Z,9.43
2022-09-06T22:11:18.914Z,9.38
2022-09-06T22:14:21.985Z,9.16
2022-09-06T22:17:25.094Z,9.09
2022-09-06T22:20:28.199Z,9.13
2022-09-06T22:23:31.853Z,9.10
2022-09-06T22:26:37.404Z,9.06
2022-09-06T22:29:40.464Z,9.07
2022-09-06T22:32:43.525Z,9.04
2022-09-06T22:35:46.850Z,9.09
2022-09-06T22:38:53.610Z,9.17
2022-09-06T22:41:56.724Z,9.18
2022-09-06T22:44:59.785Z,9.21
2022-09-06T22:48:03.019Z,9.29
2022-09-06T22:51:09.450Z,9.39
2022-09-06T22:54:12.573Z,9.46
2022-09-06T22:57:16.381Z,9.38
2022-09-06T23:00:19.566Z,9.13
2022-09-06T23:03:23.309Z,9.02
2022-09-06T23:06:26.993Z,9.07
2022-09-06T23:09:30.049Z,9.17
2022-09-06T23:12:33.116Z,9.25
2022-09-06T23:15:37.656Z,9.35
2022-09-06T23:18:40.693Z,9.53
2022-09-06T23:21:43.782Z,9.66
2022-09-06T23:24:46.927Z,9.78
2022-09-06T23:27:50.300Z,9.78
2022-09-06T23:30:53.356Z,9.84
2022-09-06T23:33:58.125Z,9.87
2022-09-06T23:37:01.206Z,9.76
2022-09-06T23:40:08.832Z,9.53
2022-09-06T23:43:12.223Z,9.41
2022-09-06T23:46:15.815Z,9.36
2022-09-06T23:49:18.891Z,9.41
2022-09-06T23:52:22.233Z,9.41
2022-09-06T23:55:25.317Z,9.48
2022-09-06T23:58:28.636Z,9.65
